sensor_id;sensor_type;location;lat;lon;timestamp;P1;durP1;ratioP1;P2;durP2;ratioP2
15913;SDS011;8055;51.930;8.840;2024-02-21T00:00:19;30.55;;;11.13;;
15913;SDS011;8055;51.930;8.840;2024-02-21T00:02:45;31.23;;;12.40;;
15913;SDS011;8055;51.930;8.840;2024-02-21T00:05:10;29.83;;;11.35;;
15913;SDS011;8055;51.930;8.840;2024-02-21T00:07:36;30.77;;;11.68;;
15913;SDS011;8055;51.930;8.840;2024-02-21T00:10:01;34.42;;;12.13;;
15913;SDS011;8055;51.930;8.840;2024-02-21T00:12:26;34.80;;;12.27;;
15913;SDS011;8055;51.930;8.840;2024-02-21T00:14:52;32.47;;;12.38;;
15913;SDS011;8055;51.930;8.840;2024-02-21T00:17:17;31.17;;;12.57;;
15913;SDS011;8055;51.930;8.840;2024-02-21T00:19:42;34.05;;;12.50;;
15913;SDS011;8055;51.930;8.840;2024-02-21T00:22:08;33.63;;;13.10;;
15913;SDS011;8055;51.930;8.840;2024-02-21T00:24:33;34.30;;;13.25;;
15913;SDS011;8055;51.930;8.840;2024-02-21T00:26:59;33.00;;;13.55;;
15913;SDS011;8055;51.930;8.840;2024-02-21T00:29:24;32.85;;;13.20;;
15913;SDS011;8055;51.930;8.840;2024-02-21T00:31:49;32.40;;;13.88;;
15913;SDS011;8055;51.930;8.840;2024-02-21T00:34:15;39.83;;;14.60;;
15913;SDS011;8055;51.930;8.840;2024-02-21T00:36:41;37.95;;;15.00;;
15913;SDS011;8055;51.930;8.840;2024-02-21T00:39:06;38.25;;;15.70;;
15913;SDS011;8055;51.930;8.840;2024-02-21T00:41:32;32.35;;;13.55;;
15913;SDS011;8055;51.930;8.840;2024-02-21T00:43:57;33.88;;;14.45;;
15913;SDS011;8055;51.930;8.840;2024-02-21T00:46:22;37.25;;;14.27;;
15913;SDS011;8055;51.930;8.840;2024-02-21T00:48:48;38.05;;;14.60;;
15913;SDS011;8055;51.930;8.840;2024-02-21T00:51:14;41.00;;;15.45;;
15913;SDS011;8055;51.930;8.840;2024-02-21T00:53:40;34.50;;;14.60;;
15913;SDS011;8055;51.930;8.840;2024-02-21T00:56:06;39.15;;;15.45;;
15913;SDS011;8055;51.930;8.840;2024-02-21T00:58:32;42.20;;;15.07;;
15913;SDS011;8055;51.930;8.840;2024-02-21T01:00:57;39.03;;;15.20;;
15913;SDS011;8055;51.930;8.840;2024-02-21T01:03:22;34.50;;;15.18;;
15913;SDS011;8055;51.930;8.840;2024-02-21T01:05:48;30.25;;;14.38;;
15913;SDS011;8055;51.930;8.840;2024-02-21T01:08:13;31.65;;;14.30;;
15913;SDS011;8055;51.930;8.840;2024-02-21T01:10:38;34.97;;;15.20;;
15913;SDS011;8055;51.930;8.840;2024-02-21T01:13:04;32.92;;;15.02;;
15913;SDS011;8055;51.930;8.840;2024-02-21T01:15:29;34.67;;;14.85;;
15913;SDS011;8055;51.930;8.840;2024-02-21T01:17:54;36.67;;;15.52;;
15913;SDS011;8055;51.930;8.840;2024-02-21T01:20:20;35.97;;;15.13;;
15913;SDS011;8055;51.930;8.840;2024-02-21T01:22:46;40.13;;;16.17;;
15913;SDS011;8055;51.930;8.840;2024-02-21T01:25:11;35.75;;;14.07;;
15913;SDS011;8055;51.930;8.840;2024-02-21T01:27:37;31.67;;;15.20;;
15913;SDS011;8055;51.930;8.840;2024-02-21T01:30:02;37.50;;;15.60;;
15913;SDS011;8055;51.930;8.840;2024-02-21T01:32:28;35.45;;;16.00;;
15913;SDS011;8055;51.930;8.840;2024-02-21T01:34:53;35.67;;;14.48;;
15913;SDS011;8055;51.930;8.840;2024-02-21T01:37:18;34.88;;;15.65;;
15913;SDS011;8055;51.930;8.840;2024-02-21T01:39:44;31.92;;;16.60;;
15913;SDS011;8055;51.930;8.840;2024-02-21T01:42:09;41.35;;;16.77;;
15913;SDS011;8055;51.930;8.840;2024-02-21T01:44:35;32.40;;;15.88;;
15913;SDS011;8055;51.930;8.840;2024-02-21T01:47:01;34.33;;;16.00;;
15913;SDS011;8055;51.930;8.840;2024-02-21T01:49:27;35.03;;;14.93;;
15913;SDS011;8055;51.930;8.840;2024-02-21T01:51:53;33.42;;;15.35;;
15913;SDS011;8055;51.930;8.840;2024-02-21T01:54:19;39.55;;;16.48;;
15913;SDS011;8055;51.930;8.840;2024-02-21T01:56:45;37.92;;;17.45;;
15913;SDS011;8055;51.930;8.840;2024-02-21T01:59:11;35.70;;;16.42;;
15913;SDS011;8055;51.930;8.840;2024-02-21T02:01:37;39.97;;;16.55;;
15913;SDS011;8055;51.930;8.840;2024-02-21T02:04:03;35.25;;;16.00;;
15913;SDS011;8055;51.930;8.840;2024-02-21T02:06:30;38.60;;;17.42;;
15913;SDS011;8055;51.930;8.840;2024-02-21T02:08:56;33.97;;;15.73;;
15913;SDS011;8055;51.930;8.840;2024-02-21T02:11:22;33.55;;;15.57;;
15913;SDS011;8055;51.930;8.840;2024-02-21T02:13:47;37.85;;;16.50;;
15913;SDS011;8055;51.930;8.840;2024-02-21T02:16:12;40.30;;;17.75;;
15913;SDS011;8055;51.930;8.840;2024-02-21T02:18:38;47.42;;;18.27;;
15913;SDS011;8055;51.930;8.840;2024-02-21T02:21:04;39.22;;;17.65;;
15913;SDS011;8055;51.930;8.840;2024-02-21T02:23:38;40.03;;;17.02;;
15913;SDS011;8055;51.930;8.840;2024-02-21T02:26:03;34.67;;;16.45;;
15913;SDS011;8055;51.930;8.840;2024-02-21T02:28:28;38.13;;;15.75;;
15913;SDS011;8055;51.930;8.840;2024-02-21T02:30:54;38.67;;;17.48;;
15913;SDS011;8055;51.930;8.840;2024-02-21T02:33:19;38.85;;;17.85;;
15913;SDS011;8055;51.930;8.840;2024-02-21T02:35:45;31.65;;;16.05;;
15913;SDS011;8055;51.930;8.840;2024-02-21T02:38:11;39.55;;;17.00;;
15913;SDS011;8055;51.930;8.840;2024-02-21T02:40:38;41.30;;;17.60;;
15913;SDS011;8055;51.930;8.840;2024-02-21T02:43:04;33.97;;;15.98;;
15913;SDS011;8055;51.930;8.840;2024-02-21T02:45:29;40.55;;;17.15;;
15913;SDS011;8055;51.930;8.840;2024-02-21T02:47:56;39.72;;;17.70;;
15913;SDS011;8055;51.930;8.840;2024-02-21T02:50:22;33.40;;;16.95;;
15913;SDS011;8055;51.930;8.840;2024-02-21T02:52:48;44.70;;;16.80;;
15913;SDS011;8055;51.930;8.840;2024-02-21T02:55:13;39.75;;;15.68;;
15913;SDS011;8055;51.930;8.840;2024-02-21T02:57:39;32.97;;;16.48;;
15913;SDS011;8055;51.930;8.840;2024-02-21T03:00:07;34.58;;;16.52;;
15913;SDS011;8055;51.930;8.840;2024-02-21T03:02:32;31.90;;;16.30;;
15913;SDS011;8055;51.930;8.840;2024-02-21T03:04:58;38.35;;;16.02;;
15913;SDS011;8055;51.930;8.840;2024-02-21T03:07:24;39.13;;;16.65;;
15913;SDS011;8055;51.930;8.840;2024-02-21T03:09:50;30.75;;;15.77;;
15913;SDS011;8055;51.930;8.840;2024-02-21T03:12:16;35.00;;;16.00;;
15913;SDS011;8055;51.930;8.840;2024-02-21T03:14:49;27.48;;;15.30;;
15913;SDS011;8055;51.930;8.840;2024-02-21T03:17:15;32.58;;;14.43;;
15913;SDS011;8055;51.930;8.840;2024-02-21T03:19:40;30.60;;;15.30;;
15913;SDS011;8055;51.930;8.840;2024-02-21T03:22:05;31.67;;;14.65;;
15913;SDS011;8055;51.930;8.840;2024-02-21T03:24:31;32.47;;;14.48;;
15913;SDS011;8055;51.930;8.840;2024-02-21T03:26:56;33.45;;;15.63;;
15913;SDS011;8055;51.930;8.840;2024-02-21T03:29:23;33.35;;;16.38;;
15913;SDS011;8055;51.930;8.840;2024-02-21T03:31:49;36.42;;;16.17;;
15913;SDS011;8055;51.930;8.840;2024-02-21T03:34:14;31.55;;;15.00;;
15913;SDS011;8055;51.930;8.840;2024-02-21T03:36:40;27.60;;;13.73;;
15913;SDS011;8055;51.930;8.840;2024-02-21T03:39:05;32.83;;;14.48;;
15913;SDS011;8055;51.930;8.840;2024-02-21T03:41:30;31.33;;;13.55;;
15913;SDS011;8055;51.930;8.840;2024-02-21T03:43:56;30.38;;;13.52;;
15913;SDS011;8055;51.930;8.840;2024-02-21T03:46:21;32.50;;;14.07;;
15913;SDS011;8055;51.930;8.840;2024-02-21T03:48:46;33.55;;;15.65;;
15913;SDS011;8055;51.930;8.840;2024-02-21T03:51:12;33.92;;;14.27;;
15913;SDS011;8055;51.930;8.840;2024-02-21T03:53:37;29.80;;;13.70;;
15913;SDS011;8055;51.930;8.840;2024-02-21T03:56:03;30.92;;;13.95;;
15913;SDS011;8055;51.930;8.840;2024-02-21T03:58:32;29.55;;;13.93;;
15913;SDS011;8055;51.930;8.840;2024-02-21T04:00:59;33.95;;;14.55;;
15913;SDS011;8055;51.930;8.840;2024-02-21T04:03:26;28.73;;;13.95;;
15913;SDS011;8055;51.930;8.840;2024-02-21T04:05:52;30.48;;;14.50;;
15913;SDS011;8055;51.930;8.840;2024-02-21T04:08:17;33.25;;;14.68;;
15913;SDS011;8055;51.930;8.840;2024-02-21T04:10:42;32.55;;;14.18;;
15913;SDS011;8055;51.930;8.840;2024-02-21T04:13:08;36.63;;;13.98;;
15913;SDS011;8055;51.930;8.840;2024-02-21T04:15:34;28.67;;;15.25;;
15913;SDS011;8055;51.930;8.840;2024-02-21T04:18:00;29.95;;;13.98;;
15913;SDS011;8055;51.930;8.840;2024-02-21T04:20:25;27.02;;;13.07;;
15913;SDS011;8055;51.930;8.840;2024-02-21T04:22:51;33.75;;;13.80;;
15913;SDS011;8055;51.930;8.840;2024-02-21T04:25:16;32.92;;;13.20;;
15913;SDS011;8055;51.930;8.840;2024-02-21T04:27:42;30.42;;;12.65;;
15913;SDS011;8055;51.930;8.840;2024-02-21T04:30:07;28.58;;;12.18;;
15913;SDS011;8055;51.930;8.840;2024-02-21T04:32:34;33.15;;;12.60;;
15913;SDS011;8055;51.930;8.840;2024-02-21T04:35:00;29.02;;;13.02;;
15913;SDS011;8055;51.930;8.840;2024-02-21T04:37:25;27.52;;;12.77;;
15913;SDS011;8055;51.930;8.840;2024-02-21T04:39:51;30.40;;;12.20;;
15913;SDS011;8055;51.930;8.840;2024-02-21T04:42:16;26.98;;;12.20;;
15913;SDS011;8055;51.930;8.840;2024-02-21T04:44:42;33.85;;;12.80;;
15913;SDS011;8055;51.930;8.840;2024-02-21T04:47:08;27.85;;;11.82;;
15913;SDS011;8055;51.930;8.840;2024-02-21T04:49:33;21.80;;;11.05;;
15913;SDS011;8055;51.930;8.840;2024-02-21T04:51:59;26.40;;;11.68;;
15913;SDS011;8055;51.930;8.840;2024-02-21T04:54:25;23.75;;;11.57;;
15913;SDS011;8055;51.930;8.840;2024-02-21T04:56:50;21.00;;;10.90;;
15913;SDS011;8055;51.930;8.840;2024-02-21T04:59:16;29.73;;;11.15;;
15913;SDS011;8055;51.930;8.840;2024-02-21T05:01:41;23.13;;;10.55;;
15913;SDS011;8055;51.930;8.840;2024-02-21T05:04:06;27.05;;;11.07;;
15913;SDS011;8055;51.930;8.840;2024-02-21T05:06:32;24.40;;;10.88;;
15913;SDS011;8055;51.930;8.840;2024-02-21T05:09:02;24.48;;;10.82;;
15913;SDS011;8055;51.930;8.840;2024-02-21T05:11:28;26.25;;;13.20;;
15913;SDS011;8055;51.930;8.840;2024-02-21T05:13:53;25.35;;;11.02;;
15913;SDS011;8055;51.930;8.840;2024-02-21T05:16:18;23.80;;;10.60;;
15913;SDS011;8055;51.930;8.840;2024-02-21T05:18:44;27.05;;;12.25;;
15913;SDS011;8055;51.930;8.840;2024-02-21T05:21:09;25.42;;;10.75;;
15913;SDS011;8055;51.930;8.840;2024-02-21T05:23:35;36.92;;;13.32;;
15913;SDS011;8055;51.930;8.840;2024-02-21T05:26:00;30.40;;;11.63;;
15913;SDS011;8055;51.930;8.840;2024-02-21T05:28:25;28.55;;;12.82;;
15913;SDS011;8055;51.930;8.840;2024-02-21T05:30:51;30.52;;;11.57;;
15913;SDS011;8055;51.930;8.840;2024-02-21T05:33:16;28.40;;;12.75;;
15913;SDS011;8055;51.930;8.840;2024-02-21T05:35:46;31.60;;;12.25;;
15913;SDS011;8055;51.930;8.840;2024-02-21T05:38:13;30.25;;;13.77;;
15913;SDS011;8055;51.930;8.840;2024-02-21T05:40:38;28.27;;;13.88;;
15913;SDS011;8055;51.930;8.840;2024-02-21T05:43:04;24.20;;;12.00;;
15913;SDS011;8055;51.930;8.840;2024-02-21T05:45:29;35.53;;;13.32;;
15913;SDS011;8055;51.930;8.840;2024-02-21T05:47:54;33.67;;;13.57;;
15913;SDS011;8055;51.930;8.840;2024-02-21T05:50:20;32.92;;;13.93;;
15913;SDS011;8055;51.930;8.840;2024-02-21T05:52:46;30.73;;;13.27;;
15913;SDS011;8055;51.930;8.840;2024-02-21T05:55:12;28.85;;;12.95;;
15913;SDS011;8055;51.930;8.840;2024-02-21T05:57:37;27.30;;;12.50;;
15913;SDS011;8055;51.930;8.840;2024-02-21T06:00:03;28.33;;;12.95;;
15913;SDS011;8055;51.930;8.840;2024-02-21T06:02:30;27.63;;;14.02;;
15913;SDS011;8055;51.930;8.840;2024-02-21T06:04:55;30.08;;;13.45;;
15913;SDS011;8055;51.930;8.840;2024-02-21T06:07:21;29.00;;;13.48;;
15913;SDS011;8055;51.930;8.840;2024-02-21T06:09:46;33.65;;;14.43;;
15913;SDS011;8055;51.930;8.840;2024-02-21T06:12:11;29.75;;;13.43;;
15913;SDS011;8055;51.930;8.840;2024-02-21T06:14:37;27.20;;;13.88;;
15913;SDS011;8055;51.930;8.840;2024-02-21T06:17:02;29.77;;;14.05;;
15913;SDS011;8055;51.930;8.840;2024-02-21T06:19:27;34.47;;;13.40;;
15913;SDS011;8055;51.930;8.840;2024-02-21T06:21:53;33.75;;;14.07;;
15913;SDS011;8055;51.930;8.840;2024-02-21T06:24:18;27.23;;;14.82;;
15913;SDS011;8055;51.930;8.840;2024-02-21T06:26:44;27.27;;;12.98;;
15913;SDS011;8055;51.930;8.840;2024-02-21T06:29:10;31.33;;;13.80;;
15913;SDS011;8055;51.930;8.840;2024-02-21T06:31:36;26.17;;;12.50;;
15913;SDS011;8055;51.930;8.840;2024-02-21T06:34:02;35.08;;;13.35;;
15913;SDS011;8055;51.930;8.840;2024-02-21T06:36:27;26.77;;;12.93;;
15913;SDS011;8055;51.930;8.840;2024-02-21T06:38:53;27.23;;;12.57;;
15913;SDS011;8055;51.930;8.840;2024-02-21T06:41:18;24.38;;;13.43;;
15913;SDS011;8055;51.930;8.840;2024-02-21T06:43:44;25.10;;;12.48;;
15913;SDS011;8055;51.930;8.840;2024-02-21T06:46:11;27.88;;;12.50;;
15913;SDS011;8055;51.930;8.840;2024-02-21T06:48:36;23.77;;;12.45;;
15913;SDS011;8055;51.930;8.840;2024-02-21T06:51:02;26.15;;;11.75;;
15913;SDS011;8055;51.930;8.840;2024-02-21T06:53:28;34.65;;;12.07;;
15913;SDS011;8055;51.930;8.840;2024-02-21T06:55:54;28.75;;;12.90;;
15913;SDS011;8055;51.930;8.840;2024-02-21T06:58:19;29.63;;;11.35;;
15913;SDS011;8055;51.930;8.840;2024-02-21T07:00:44;29.92;;;12.77;;
15913;SDS011;8055;51.930;8.840;2024-02-21T07:03:10;29.15;;;11.15;;
15913;SDS011;8055;51.930;8.840;2024-02-21T07:05:35;27.80;;;11.05;;
15913;SDS011;8055;51.930;8.840;2024-02-21T07:08:01;27.60;;;11.68;;
15913;SDS011;8055;51.930;8.840;2024-02-21T07:10:26;28.25;;;12.25;;
15913;SDS011;8055;51.930;8.840;2024-02-21T07:12:54;24.63;;;11.38;;
15913;SDS011;8055;51.930;8.840;2024-02-21T07:15:19;29.42;;;11.75;;
15913;SDS011;8055;51.930;8.840;2024-02-21T07:17:45;21.55;;;10.73;;
15913;SDS011;8055;51.930;8.840;2024-02-21T07:20:10;24.35;;;11.43;;
15913;SDS011;8055;51.930;8.840;2024-02-21T07:22:36;25.55;;;10.35;;
15913;SDS011;8055;51.930;8.840;2024-02-21T07:25:01;25.45;;;10.85;;
15913;SDS011;8055;51.930;8.840;2024-02-21T07:27:26;24.35;;;10.60;;
15913;SDS011;8055;51.930;8.840;2024-02-21T07:29:55;24.40;;;10.73;;
15913;SDS011;8055;51.930;8.840;2024-02-21T07:32:21;23.38;;;10.90;;
15913;SDS011;8055;51.930;8.840;2024-02-21T07:34:46;24.27;;;10.55;;
15913;SDS011;8055;51.930;8.840;2024-02-21T07:37:12;18.88;;;10.20;;
15913;SDS011;8055;51.930;8.840;2024-02-21T07:39:37;26.67;;;10.18;;
15913;SDS011;8055;51.930;8.840;2024-02-21T07:42:03;22.63;;;10.15;;
15913;SDS011;8055;51.930;8.840;2024-02-21T07:44:28;18.10;;;9.75;;
15913;SDS011;8055;51.930;8.840;2024-02-21T07:46:53;22.70;;;10.38;;
15913;SDS011;8055;51.930;8.840;2024-02-21T07:49:19;19.17;;;10.77;;
15913;SDS011;8055;51.930;8.840;2024-02-21T07:51:44;24.40;;;9.82;;
15913;SDS011;8055;51.930;8.840;2024-02-21T07:54:09;22.92;;;9.43;;
15913;SDS011;8055;51.930;8.840;2024-02-21T07:56:35;20.40;;;9.93;;
15913;SDS011;8055;51.930;8.840;2024-02-21T07:59:00;22.45;;;9.70;;
15913;SDS011;8055;51.930;8.840;2024-02-21T08:01:25;20.08;;;9.65;;
15913;SDS011;8055;51.930;8.840;2024-02-21T08:03:51;18.38;;;9.35;;
15913;SDS011;8055;51.930;8.840;2024-02-21T08:06:16;18.75;;;9.70;;
15913;SDS011;8055;51.930;8.840;2024-02-21T08:08:42;18.65;;;8.52;;
15913;SDS011;8055;51.930;8.840;2024-02-21T08:11:07;16.65;;;9.68;;
15913;SDS011;8055;51.930;8.840;2024-02-21T08:13:32;21.60;;;8.95;;
15913;SDS011;8055;51.930;8.840;2024-02-21T08:15:58;18.42;;;8.70;;
15913;SDS011;8055;51.930;8.840;2024-02-21T08:18:23;21.40;;;8.55;;
15913;SDS011;8055;51.930;8.840;2024-02-21T08:20:48;21.02;;;8.55;;
15913;SDS011;8055;51.930;8.840;2024-02-21T08:23:18;17.15;;;8.18;;
15913;SDS011;8055;51.930;8.840;2024-02-21T08:25:44;15.50;;;7.88;;
15913;SDS011;8055;51.930;8.840;2024-02-21T08:28:10;18.90;;;9.23;;
15913;SDS011;8055;51.930;8.840;2024-02-21T08:30:35;20.40;;;8.82;;
15913;SDS011;8055;51.930;8.840;2024-02-21T08:33:00;16.30;;;8.30;;
15913;SDS011;8055;51.930;8.840;2024-02-21T08:35:26;20.98;;;9.48;;
15913;SDS011;8055;51.930;8.840;2024-02-21T08:37:51;15.40;;;8.77;;
15913;SDS011;8055;51.930;8.840;2024-02-21T08:40:16;16.88;;;8.57;;
15913;SDS011;8055;51.930;8.840;2024-02-21T08:42:46;15.30;;;8.30;;
15913;SDS011;8055;51.930;8.840;2024-02-21T08:45:12;20.85;;;8.65;;
15913;SDS011;8055;51.930;8.840;2024-02-21T08:47:41;14.13;;;8.18;;
15913;SDS011;8055;51.930;8.840;2024-02-21T08:50:07;20.20;;;10.23;;
15913;SDS011;8055;51.930;8.840;2024-02-21T08:52:34;17.05;;;7.68;;
15913;SDS011;8055;51.930;8.840;2024-02-21T08:55:00;17.90;;;8.52;;
15913;SDS011;8055;51.930;8.840;2024-02-21T08:57:25;21.15;;;8.57;;
15913;SDS011;8055;51.930;8.840;2024-02-21T08:59:53;21.48;;;8.80;;
15913;SDS011;8055;51.930;8.840;2024-02-21T09:02:18;16.80;;;7.85;;
15913;SDS011;8055;51.930;8.840;2024-02-21T09:04:43;19.95;;;8.55;;
15913;SDS011;8055;51.930;8.840;2024-02-21T09:07:09;18.98;;;8.57;;
15913;SDS011;8055;51.930;8.840;2024-02-21T09:09:38;16.50;;;7.60;;
15913;SDS011;8055;51.930;8.840;2024-02-21T09:12:07;12.82;;;6.72;;
15913;SDS011;8055;51.930;8.840;2024-02-21T09:14:33;14.63;;;7.07;;
15913;SDS011;8055;51.930;8.840;2024-02-21T09:16:59;12.80;;;7.15;;
15913;SDS011;8055;51.930;8.840;2024-02-21T09:19:24;19.77;;;9.95;;
15913;SDS011;8055;51.930;8.840;2024-02-21T09:21:49;14.15;;;6.95;;
15913;SDS011;8055;51.930;8.840;2024-02-21T09:24:15;17.17;;;7.38;;
15913;SDS011;8055;51.930;8.840;2024-02-21T09:26:40;13.75;;;6.72;;
15913;SDS011;8055;51.930;8.840;2024-02-21T09:29:06;16.45;;;7.35;;
15913;SDS011;8055;51.930;8.840;2024-02-21T09:31:31;15.43;;;7.03;;
15913;SDS011;8055;51.930;8.840;2024-02-21T09:33:56;13.98;;;6.55;;
15913;SDS011;8055;51.930;8.840;2024-02-21T09:36:22;12.10;;;5.82;;
15913;SDS011;8055;51.930;8.840;2024-02-21T09:38:47;13.65;;;5.65;;
15913;SDS011;8055;51.930;8.840;2024-02-21T09:43:44;12.68;;;6.05;;
15913;SDS011;8055;51.930;8.840;2024-02-21T09:46:16;14.68;;;6.15;;
15913;SDS011;8055;51.930;8.840;2024-02-21T09:49:12;10.95;;;5.50;;
15913;SDS011;8055;51.930;8.840;2024-02-21T09:51:41;12.25;;;5.82;;
15913;SDS011;8055;51.930;8.840;2024-02-21T09:54:08;9.85;;;5.28;;
15913;SDS011;8055;51.930;8.840;2024-02-21T09:56:34;15.77;;;5.60;;
15913;SDS011;8055;51.930;8.840;2024-02-21T09:59:00;11.23;;;5.05;;
15913;SDS011;8055;51.930;8.840;2024-02-21T10:01:29;9.98;;;4.93;;
15913;SDS011;8055;51.930;8.840;2024-02-21T10:03:57;10.48;;;5.32;;
15913;SDS011;8055;51.930;8.840;2024-02-21T10:06:22;14.48;;;5.35;;
15913;SDS011;8055;51.930;8.840;2024-02-21T10:08:54;14.60;;;5.10;;
15913;SDS011;8055;51.930;8.840;2024-02-21T10:11:23;9.80;;;4.95;;
15913;SDS011;8055;51.930;8.840;2024-02-21T10:13:49;12.73;;;5.68;;
15913;SDS011;8055;51.930;8.840;2024-02-21T10:16:15;17.27;;;5.88;;
15913;SDS011;8055;51.930;8.840;2024-02-21T10:18:40;10.38;;;5.38;;
15913;SDS011;8055;51.930;8.840;2024-02-21T10:21:06;13.52;;;5.88;;
15913;SDS011;8055;51.930;8.840;2024-02-21T10:23:42;17.95;;;6.40;;
15913;SDS011;8055;51.930;8.840;2024-02-21T10:26:14;13.52;;;6.38;;
15913;SDS011;8055;51.930;8.840;2024-02-21T10:28:41;17.00;;;7.68;;
15913;SDS011;8055;51.930;8.840;2024-02-21T10:31:11;13.98;;;6.47;;
15913;SDS011;8055;51.930;8.840;2024-02-21T10:33:53;20.25;;;7.30;;
15913;SDS011;8055;51.930;8.840;2024-02-21T10:36:30;13.35;;;7.78;;
15913;SDS011;8055;51.930;8.840;2024-02-21T10:38:55;17.98;;;9.57;;
15913;SDS011;8055;51.930;8.840;2024-02-21T10:41:21;12.77;;;7.53;;
15913;SDS011;8055;51.930;8.840;2024-02-21T10:43:51;18.75;;;8.50;;
15913;SDS011;8055;51.930;8.840;2024-02-21T10:46:21;15.43;;;9.38;;
15913;SDS011;8055;51.930;8.840;2024-02-21T10:48:51;18.42;;;8.40;;
15913;SDS011;8055;51.930;8.840;2024-02-21T10:51:30;14.65;;;8.55;;
15913;SDS011;8055;51.930;8.840;2024-02-21T10:56:57;20.17;;;10.00;;
15913;SDS011;8055;51.930;8.840;2024-02-21T10:59:25;18.10;;;9.07;;
15913;SDS011;8055;51.930;8.840;2024-02-21T11:01:52;19.98;;;9.75;;
15913;SDS011;8055;51.930;8.840;2024-02-21T11:04:17;20.60;;;9.88;;
15913;SDS011;8055;51.930;8.840;2024-02-21T11:06:43;20.02;;;10.30;;
15913;SDS011;8055;51.930;8.840;2024-02-21T11:09:10;16.40;;;9.63;;
15913;SDS011;8055;51.930;8.840;2024-02-21T11:11:36;17.38;;;8.70;;
15913;SDS011;8055;51.930;8.840;2024-02-21T11:14:03;20.35;;;9.07;;
15913;SDS011;8055;51.930;8.840;2024-02-21T11:16:49;15.77;;;7.75;;
15913;SDS011;8055;51.930;8.840;2024-02-21T11:19:21;13.75;;;8.27;;
15913;SDS011;8055;51.930;8.840;2024-02-21T11:21:49;18.30;;;8.05;;
15913;SDS011;8055;51.930;8.840;2024-02-21T11:24:27;15.55;;;7.55;;
15913;SDS011;8055;51.930;8.840;2024-02-21T11:27:12;13.30;;;7.28;;
15913;SDS011;8055;51.930;8.840;2024-02-21T11:29:44;12.00;;;7.18;;
15913;SDS011;8055;51.930;8.840;2024-02-21T11:32:10;11.68;;;5.88;;
15913;SDS011;8055;51.930;8.840;2024-02-21T11:34:39;11.73;;;6.68;;
15913;SDS011;8055;51.930;8.840;2024-02-21T11:37:13;16.70;;;10.52;;
15913;SDS011;8055;51.930;8.840;2024-02-21T11:39:42;14.02;;;6.25;;
15913;SDS011;8055;51.930;8.840;2024-02-21T11:42:08;13.55;;;6.35;;
15913;SDS011;8055;51.930;8.840;2024-02-21T11:44:35;11.32;;;5.97;;
15913;SDS011;8055;51.930;8.840;2024-02-21T11:47:03;10.45;;;4.55;;
15913;SDS011;8055;51.930;8.840;2024-02-21T11:49:36;12.95;;;6.25;;
15913;SDS011;8055;51.930;8.840;2024-02-21T11:52:08;14.18;;;5.80;;
15913;SDS011;8055;51.930;8.840;2024-02-21T11:54:34;12.60;;;4.90;;
15913;SDS011;8055;51.930;8.840;2024-02-21T11:56:59;11.35;;;4.95;;
15913;SDS011;8055;51.930;8.840;2024-02-21T11:59:25;9.40;;;4.25;;
15913;SDS011;8055;51.930;8.840;2024-02-21T12:01:52;19.48;;;8.70;;
15913;SDS011;8055;51.930;8.840;2024-02-21T12:04:19;12.32;;;4.07;;
15913;SDS011;8055;51.930;8.840;2024-02-21T12:06:45;9.05;;;4.00;;
15913;SDS011;8055;51.930;8.840;2024-02-21T12:09:17;11.77;;;5.15;;
15913;SDS011;8055;51.930;8.840;2024-02-21T12:11:43;14.40;;;4.65;;
15913;SDS011;8055;51.930;8.840;2024-02-21T12:14:09;7.95;;;4.20;;
15913;SDS011;8055;51.930;8.840;2024-02-21T12:16:34;10.80;;;3.40;;
15913;SDS011;8055;51.930;8.840;2024-02-21T12:19:03;8.02;;;3.55;;
15913;SDS011;8055;51.930;8.840;2024-02-21T12:21:32;8.30;;;4.10;;
15913;SDS011;8055;51.930;8.840;2024-02-21T12:24:11;8.93;;;3.28;;
15913;SDS011;8055;51.930;8.840;2024-02-21T12:26:38;9.90;;;4.07;;
15913;SDS011;8055;51.930;8.840;2024-02-21T12:29:03;12.50;;;5.50;;
15913;SDS011;8055;51.930;8.840;2024-02-21T12:31:28;15.43;;;8.15;;
15913;SDS011;8055;51.930;8.840;2024-02-21T12:33:54;11.20;;;3.58;;
15913;SDS011;8055;51.930;8.840;2024-02-21T12:36:19;9.43;;;3.53;;
15913;SDS011;8055;51.930;8.840;2024-02-21T12:38:45;8.27;;;3.53;;
15913;SDS011;8055;51.930;8.840;2024-02-21T12:41:11;10.70;;;4.00;;
15913;SDS011;8055;51.930;8.840;2024-02-21T12:43:37;12.35;;;4.38;;
15913;SDS011;8055;51.930;8.840;2024-02-21T12:46:03;9.15;;;3.63;;
15913;SDS011;8055;51.930;8.840;2024-02-21T12:48:28;5.90;;;3.17;;
15913;SDS011;8055;51.930;8.840;2024-02-21T12:50:54;9.30;;;4.35;;
15913;SDS011;8055;51.930;8.840;2024-02-21T12:53:19;11.18;;;5.13;;
15913;SDS011;8055;51.930;8.840;2024-02-21T12:55:49;8.10;;;3.45;;
15913;SDS011;8055;51.930;8.840;2024-02-21T12:58:15;8.25;;;4.13;;
15913;SDS011;8055;51.930;8.840;2024-02-21T13:00:41;9.15;;;4.00;;
15913;SDS011;8055;51.930;8.840;2024-02-21T13:03:07;10.88;;;5.50;;
15913;SDS011;8055;51.930;8.840;2024-02-21T13:05:34;11.35;;;4.05;;
15913;SDS011;8055;51.930;8.840;2024-02-21T13:08:00;11.43;;;5.80;;
15913;SDS011;8055;51.930;8.840;2024-02-21T13:10:26;9.73;;;4.28;;
15913;SDS011;8055;51.930;8.840;2024-02-21T13:12:51;9.68;;;4.25;;
15913;SDS011;8055;51.930;8.840;2024-02-21T13:15:17;9.63;;;4.10;;
15913;SDS011;8055;51.930;8.840;2024-02-21T13:17:43;11.98;;;3.97;;
15913;SDS011;8055;51.930;8.840;2024-02-21T13:20:09;7.90;;;3.65;;
15913;SDS011;8055;51.930;8.840;2024-02-21T13:22:35;7.65;;;3.28;;
15913;SDS011;8055;51.930;8.840;2024-02-21T13:25:01;8.57;;;3.10;;
15913;SDS011;8055;51.930;8.840;2024-02-21T13:27:27;8.40;;;3.35;;
15913;SDS011;8055;51.930;8.840;2024-02-21T13:29:52;10.70;;;3.60;;
15913;SDS011;8055;51.930;8.840;2024-02-21T13:32:18;14.98;;;4.00;;
15913;SDS011;8055;51.930;8.840;2024-02-21T13:34:43;10.85;;;4.18;;
15913;SDS011;8055;51.930;8.840;2024-02-21T13:37:09;8.60;;;3.80;;
15913;SDS011;8055;51.930;8.840;2024-02-21T13:39:35;11.50;;;4.70;;
15913;SDS011;8055;51.930;8.840;2024-02-21T13:42:01;8.55;;;4.07;;
15913;SDS011;8055;51.930;8.840;2024-02-21T13:44:26;14.40;;;4.68;;
15913;SDS011;8055;51.930;8.840;2024-02-21T13:46:51;9.82;;;3.83;;
15913;SDS011;8055;51.930;8.840;2024-02-21T13:49:17;10.27;;;3.97;;
15913;SDS011;8055;51.930;8.840;2024-02-21T13:51:42;13.10;;;4.60;;
15913;SDS011;8055;51.930;8.840;2024-02-21T13:54:09;11.65;;;3.80;;
15913;SDS011;8055;51.930;8.840;2024-02-21T13:56:36;9.65;;;3.25;;
15913;SDS011;8055;51.930;8.840;2024-02-21T13:59:02;6.55;;;2.85;;
15913;SDS011;8055;51.930;8.840;2024-02-21T14:01:28;7.93;;;2.83;;
15913;SDS011;8055;51.930;8.840;2024-02-21T14:03:53;9.13;;;2.92;;
15913;SDS011;8055;51.930;8.840;2024-02-21T14:06:19;6.03;;;2.35;;
15913;SDS011;8055;51.930;8.840;2024-02-21T14:08:44;8.02;;;2.92;;
15913;SDS011;8055;51.930;8.840;2024-02-21T14:11:10;7.30;;;2.88;;
15913;SDS011;8055;51.930;8.840;2024-02-21T14:13:35;9.73;;;2.80;;
15913;SDS011;8055;51.930;8.840;2024-02-21T14:16:01;6.32;;;2.60;;
15913;SDS011;8055;51.930;8.840;2024-02-21T14:18:27;5.25;;;2.67;;
15913;SDS011;8055;51.930;8.840;2024-02-21T14:20:52;9.93;;;3.08;;
15913;SDS011;8055;51.930;8.840;2024-02-21T14:23:18;6.20;;;2.83;;
15913;SDS011;8055;51.930;8.840;2024-02-21T14:25:43;6.85;;;2.95;;
15913;SDS011;8055;51.930;8.840;2024-02-21T14:28:08;10.27;;;3.30;;
15913;SDS011;8055;51.930;8.840;2024-02-21T14:30:36;8.38;;;3.05;;
15913;SDS011;8055;51.930;8.840;2024-02-21T14:33:02;10.07;;;3.72;;
15913;SDS011;8055;51.930;8.840;2024-02-21T14:35:27;8.15;;;3.10;;
15913;SDS011;8055;51.930;8.840;2024-02-21T14:37:52;6.43;;;2.85;;
15913;SDS011;8055;51.930;8.840;2024-02-21T14:40:20;7.60;;;2.80;;
15913;SDS011;8055;51.930;8.840;2024-02-21T14:42:46;5.93;;;2.50;;